Time;durP1;ratioP1;P1;durP2;ratioP2;P2;SDS_P1;SDS_P2;PMS_P1;PMS_P2;Temp;Humidity;BMP_temperature;BMP_pressure;BME280_temperature;BME280_humidity;BME280_pressure;Samples;Min_cycle;Max_cycle;Signal;HPM_P1;HPM_P2
2023/02/07 06:54:35;;;;;;;5.53;3.47;;;;;;;;;;10504993;28;20707;-82
2023/02/07 06:59:37;;;;;;;5.68;4.10;;;;;;;;;;10502989;28;20513;-83
2023/02/07 07:04:38;;;;;;;7.20;4.82;;;;;;;;;;10514273;28;20025;-82
2023/02/07 07:09:39;;;;;;;9.63;7.20;;;;;;;;;;10503738;28;20029;-83
2023/02/07 07:14:40;;;;;;;6.80;4.82;;;;;;;;;;10505852;28;20031;-83
2023/02/07 07:19:41;;;;;;;7.55;5.13;;;;;;;;;;10504538;28;20055;-82
2023/02/07 07:24:42;;;;;;;6.70;4.72;;;;;;;;;;10503125;28;20063;-82
2023/02/07 07:29:43;;;;;;;11.02;8.45;;;;;;;;;;10502340;28;20186;-82
2023/02/07 07:34:44;;;;;;;5.97;4.70;;;;;;;;;;10503998;28;20035;-82
2023/02/07 07:39:45;;;;;;;;;;;;;;;;;;10506449;28;20102;-81
2023/02/07 07:44:46;;;;;;;8.02;6.40;;;;;;;;;;10512371;28;20054;-82
2023/02/07 07:49:47;;;;;;;8.93;6.82;;;;;;;;;;10525170;28;20186;-81
2023/02/07 07:54:48;;;;;;;5.53;3.92;;;;;;;;;;10529414;28;20050;-81
2023/02/07 07:59:49;;;;;;;5.65;4.25;;;;;;;;;;10507368;28;20048;-84
2023/02/07 08:04:50;;;;;;;6.53;4.15;;;;;;;;;;10486930;28;20029;-80
2023/02/07 08:09:51;;;;;;;;;;;;;;;;;;10473831;28;20513;-83
2023/02/07 08:14:52;;;;;;;8.63;6.50;;;;;;;;;;10473226;28;19909;-84
2023/02/07 08:19:53;;;;;;;7.85;6.20;;;;;;;;;;10472412;28;20035;-83
2023/02/07 08:24:54;;;;;;;7.53;6.07;;;;;;;;;;10485587;28;20035;-84
2023/02/07 08:29:55;;;;;;;8.38;5.95;;;;;;;;;;10476144;28;20021;-84
2023/02/07 08:34:56;;;;;;;;;;;;;;;;;;10473856;28;20100;-83
2023/02/07 08:39:57;;;;;;;8.57;6.50;;;;;;;;;;10473274;28;19908;-83
2023/02/07 08:44:58;;;;;;;;;;;;;;;;;;10473461;28;20116;-84
2023/02/07 08:49:59;;;;;;;11.45;8.73;;;;;;;;;;10473253;28;19913;-83
2023/02/07 08:55:00;;;;;;;9.80;5.22;;;;;;;;;;10472892;28;20036;-83
2023/02/07 09:00:02;;;;;;;8.80;6.75;;;;;;;;;;10471770;28;20025;-83
2023/02/07 09:05:03;;;;;;;9.10;6.65;;;;;;;;;;10471157;28;20040;-84
2023/02/07 09:10:10;;;;;;;9.32;7.25;;;;;;;;;;10471948;28;20203;-84
2023/02/07 09:15:11;;;;;;;8.18;6.85;;;;;;;;;;10470994;28;20044;-84
2023/02/07 09:20:12;;;;;;;;;;;;;;;;;;10476858;28;20431;-86
2023/02/07 09:25:13;;;;;;;10.07;6.90;;;;;;;;;;10412450;22;19965;-82
2023/02/07 09:30:14;;;;;;;;;;;;;;;;;;10368078;28;20042;-84
2023/02/07 09:35:15;;;;;;;7.45;5.97;;;;;;;;;;10349093;28;19949;-83
2023/02/07 09:40:17;;;;;;;;;;;;;;;;;;10358093;28;20021;-79
2023/02/07 09:45:20;;;;;;;6.15;4.78;;;;;;;;;;10354088;28;19913;-82
2023/02/07 09:50:23;;;;;;;7.10;5.43;;;;;;;;;;10347260;28;20065;-84
2023/02/07 09:55:27;;;;;;;8.27;5.90;;;;;;;;;;10346440;28;20401;-83
2023/02/07 10:00:30;;;;;;;5.78;4.57;;;;;;;;;;10347214;28;20030;-82
2023/02/07 10:05:42;;;;;;;6.35;4.28;;;;;;;;;;10351354;28;20054;-83
2023/02/07 10:11:06;;;;;;;8.02;4.22;;;;;;;;;;10346493;28;20034;-84
2023/02/07 10:16:26;;;;;;;6.00;4.07;;;;;;;;;;10340589;28;20133;-83
2023/02/07 10:21:46;;;;;;;7.78;4.75;;;;;;;;;;10350380;28;20031;-84
2023/02/07 10:26:50;;;;;;;5.03;4.05;;;;;;;;;;10351429;28;20101;-84
2023/02/07 10:31:52;;;;;;;8.30;3.70;;;;;;;;;;10353601;28;20081;-85
2023/02/07 10:36:56;;;;;;;7.00;4.13;;;;;;;;;;10356084;28;20046;-85
2023/02/07 10:41:58;;;;;;;6.45;3.90;;;;;;;;;;10372300;28;20019;-83
2023/02/07 10:47:01;;;;;;;7.47;4.22;;;;;;;;;;10364432;28;20125;-84
2023/02/07 10:52:20;;;;;;;4.65;3.58;;;;;;;;;;10345214;28;20100;-83
2023/02/07 10:57:22;;;;;;;7.90;5.30;;;;;;;;;;10347343;28;20053;-85
2023/02/07 11:02:23;;;;;;;7.85;4.82;;;;;;;;;;10354749;28;20049;-85
2023/02/07 11:07:24;;;;;;;7.25;3.20;;;;;;;;;;10347808;28;20397;-85
2023/02/07 11:12:26;;;;;;;6.70;4.47;;;;;;;;;;10344893;28;20213;-85
2023/02/07 11:17:27;;;;;;;5.55;3.40;;;;;;;;;;10346219;28;20023;-83
2023/02/07 11:22:29;;;;;;;4.68;2.90;;;;;;;;;;10346847;28;20093;-84
2023/02/07 11:27:30;;;;;;;;;;;;;;;;;;10350439;28;20116;-84
2023/02/07 11:32:31;;;;;;;6.00;3.40;;;;;;;;;;10354089;28;19981;-84
2023/02/07 11:37:36;;;;;;;5.13;2.95;;;;;;;;;;10370367;28;20049;-84
2023/02/07 11:42:37;;;;;;;4.03;3.00;;;;;;;;;;10355367;28;20026;-83
2023/02/07 11:47:41;;;;;;;6.13;3.60;;;;;;;;;;10356474;28;20026;-83
2023/02/07 11:52:49;;;;;;;5.18;3.97;;;;;;;;;;10393699;22;20041;-80
2023/02/07 11:57:50;;;;;;;5.25;2.80;;;;;;;;;;10450089;28;20082;-80
2023/02/07 12:03:01;;;;;;;4.35;3.00;;;;;;;;;;10445953;28;20045;-80
2023/02/07 12:08:02;;;;;;;;;;;;;;;;;;10443476;28;20033;-81
2023/02/07 12:13:10;;;;;;;3.58;2.97;;;;;;;;;;10444867;28;20008;-80
2023/02/07 12:18:31;;;;;;;8.82;3.60;;;;;;;;;;10447196;28;20045;-81
2023/02/07 12:23:51;;;;;;;3.10;2.33;;;;;;;;;;10449534;28;20052;-81
2023/02/07 12:29:11;;;;;;;4.43;2.63;;;;;;;;;;10447102;28;20026;-80
2023/02/07 12:34:19;;;;;;;4.40;2.42;;;;;;;;;;10448979;28;20033;-80
2023/02/07 12:39:21;;;;;;;5.63;3.10;;;;;;;;;;10444105;28;20041;-80
2023/02/07 12:44:34;;;;;;;4.50;3.65;;;;;;;;;;10443046;28;20056;-79
2023/02/07 12:49:49;;;;;;;3.40;2.25;;;;;;;;;;10442732;28;20053;-80
2023/02/07 12:54:50;;;;;;;5.30;4.70;;;;;;;;;;10443944;28;20065;-80
2023/02/07 13:00:07;;;;;;;4.63;3.20;;;;;;;;;;10447863;28;20052;-81
2023/02/07 13:05:22;;;;;;;5.05;3.55;;;;;;;;;;10444294;28;20022;-82
2023/02/07 13:10:42;;;;;;;4.10;2.58;;;;;;;;;;10446546;28;20030;-81
2023/02/07 13:15:43;;;;;;;5.22;3.15;;;;;;;;;;10450066;28;20022;-81
2023/02/07 13:20:57;;;;;;;3.40;2.50;;;;;;;;;;10450251;28;20037;-81
2023/02/07 13:26:01;;;;;;;3.90;3.33;;;;;;;;;;10444738;28;20036;-81
2023/02/07 13:31:02;;;;;;;4.95;4.28;;;;;;;;;;10445234;28;20159;-81
2023/02/07 13:36:11;;;;;;;3.90;2.70;;;;;;;;;;10445235;28;20049;-81
2023/02/07 13:41:12;;;;;;;4.15;3.60;;;;;;;;;;10442112;28;20049;-82
2023/02/07 13:46:39;;;;;;;5.90;3.67;;;;;;;;;;10442342;28;20136;-81
2023/02/07 13:51:50;;;;;;;3.47;2.90;;;;;;;;;;10437146;28;20061;-81
2023/02/07 14:02:19;;;;;;;2.85;2.45;;;;;;;;;;10439542;28;20037;-81
2023/02/07 14:07:28;;;;;;;3.20;2.28;;;;;;;;;;10440789;28;20029;-80
2023/02/07 14:12:31;;;;;;;3.42;2.10;;;;;;;;;;10444230;28;20033;-80
2023/02/07 14:17:32;;;;;;;5.57;3.65;;;;;;;;;;10445218;28;20463;-80
2023/02/07 14:22:42;;;;;;;4.45;2.75;;;;;;;;;;10446243;28;20025;-82
2023/02/07 14:27:50;;;;;;;4.67;3.80;;;;;;;;;;10440694;28;20025;-82
2023/02/07 14:33:23;;;;;;;4.35;2.80;;;;;;;;;;10441832;28;20140;-82
2023/02/07 14:38:46;;;;;;;4.90;3.92;;;;;;;;;;10412002;28;20103;-83
2023/02/07 14:43:52;;;;;;;5.15;2.60;;;;;;;;;;10442615;28;20099;-81
2023/02/07 14:49:05;;;;;;;6.57;4.63;;;;;;;;;;10440613;28;20026;-81
2023/02/07 14:54:06;;;;;;;3.03;2.22;;;;;;;;;;10441985;28;20501;-81
2023/02/07 14:59:09;;;;;;;6.40;3.95;;;;;;;;;;10447185;28;20026;-81
2023/02/07 15:04:10;;;;;;;3.45;2.60;;;;;;;;;;10450546;28;20034;-82
2023/02/07 15:09:21;;;;;;;4.35;2.50;;;;;;;;;;10445356;28;20025;-81
2023/02/07 15:14:30;;;;;;;4.20;2.73;;;;;;;;;;10449787;28;20033;-81
2023/02/07 15:19:36;;;;;;;5.20;3.50;;;;;;;;;;10462332;28;20040;-84
2023/02/07 15:24:40;;;;;;;2.75;2.20;;;;;;;;;;10470708;28;20010;-81
2023/02/07 15:29:54;;;;;;;3.42;2.40;;;;;;;;;;10455831;28;20099;-82
2023/02/07 15:35:06;;;;;;;4.55;2.60;;;;;;;;;;10449484;28;20074;-80
2023/02/07 15:40:13;;;;;;;4.75;2.92;;;;;;;;;;10450906;28;20025;-79
2023/02/07 15:45:47;;;;;;;4.68;2.70;;;;;;;;;;10451283;28;20052;-83
2023/02/07 15:50:52;;;;;;;5.55;2.78;;;;;;;;;;10446097;28;20029;-80
2023/02/07 15:55:56;;;;;;;4.07;2.95;;;;;;;;;;10446492;28;20037;-81
2023/02/07 16:01:01;;;;;;;5.28;3.33;;;;;;;;;;10451283;28;20060;-80
2023/02/07 16:06:10;;;;;;;3.85;3.00;;;;;;;;;;10445086;28;20124;-80
2023/02/07 16:11:34;;;;;;;4.20;2.60;;;;;;;;;;10443702;28;20106;-80
2023/02/07 16:16:38;;;;;;;7.32;4.13;;;;;;;;;;10445660;28;20017;-79
2023/02/07 16:21:39;;;;;;;4.22;2.78;;;;;;;;;;10445386;28;20456;-80
2023/02/07 16:26:41;;;;;;;7.75;3.20;;;;;;;;;;10447538;28;20049;-79
2023/02/07 16:31:42;;;;;;;5.00;3.53;;;;;;;;;;10448376;28;20124;-78
2023/02/07 16:36:44;;;;;;;6.97;4.07;;;;;;;;;;10452619;28;20029;-79
2023/02/07 16:41:46;;;;;;;5.25;3.58;;;;;;;;;;10448826;28;20381;-80
2023/02/07 16:46:48;;;;;;;3.97;3.05;;;;;;;;;;10442962;28;20116;-79
2023/02/07 16:51:49;;;;;;;;;;;;;;;;;;10441602;28;20049;-79
2023/02/07 16:56:52;;;;;;;5.00;3.10;;;;;;;;;;10446352;28;19980;-78
2023/02/07 17:01:54;;;;;;;5.70;3.72;;;;;;;;;;10444996;28;20029;-79
2023/02/07 17:06:55;;;;;;;8.43;4.03;;;;;;;;;;10450075;28;20021;-79
2023/02/07 17:11:55;;;;;;;;;;;;;;;;;;10448276;28;20029;-79
2023/02/07 17:16:57;;;;;;;5.35;2.53;;;;;;;;;;10440140;28;19909;-80
2023/02/07 17:21:57;;;;;;;;;;;;;;;;;;10428727;28;20034;-80
2023/02/07 17:26:59;;;;;;;8.27;5.53;;;;;;;;;;10435123;28;19905;-84
2023/02/07 17:32:00;;;;;;;10.10;6.03;;;;;;;;;;10432901;28;20041;-84
2023/02/07 17:37:11;;;;;;;7.35;5.13;;;;;;;;;;10438163;28;20021;-84
2023/02/07 17:42:12;;;;;;;9.80;5.72;;;;;;;;;;10433356;28;20419;-84
2023/02/07 17:47:13;;;;;;;;;;;;;;;;;;10430051;28;20093;-84
2023/02/07 17:57:17;;;;;;;8.98;5.95;;;;;;;;;;10437159;28;20095;-82
2023/02/07 18:02:18;;;;;;;;;;;;;;;;;;10420870;28;20498;-82
2023/02/07 18:07:19;;;;;;;8.82;7.15;;;;;;;;;;10420425;28;19905;-83
2023/02/07 18:12:20;;;;;;;9.68;6.55;;;;;;;;;;10438585;28;20045;-82
2023/02/07 18:17:21;;;;;;;;;;;;;;;;;;10422182;28;20026;-82
2023/02/07 18:22:22;;;;;;;9.45;7.40;;;;;;;;;;10439807;28;19991;-82
2023/02/07 18:27:23;;;;;;;;;;;;;;;;;;10426442;28;20029;-82
2023/02/07 18:32:24;;;;;;;9.52;6.88;;;;;;;;;;10439498;28;19972;-83
2023/02/07 18:37:25;;;;;;;;;;;;;;;;;;10415652;28;20118;-83
2023/02/07 18:42:26;;;;;;;8.75;7.45;;;;;;;;;;10430564;28;19932;-83
2023/02/07 18:47:27;;;;;;;;;;;;;;;;;;10437590;28;20022;-82
2023/02/07 18:52:28;;;;;;;9.48;6.75;;;;;;;;;;10436321;28;19963;-83
2023/02/07 18:57:29;;;;;;;;;;;;;;;;;;10417523;28;20037;-83
2023/02/07 19:02:30;;;;;;;11.73;9.05;;;;;;;;;;10413007;28;19905;-83
2023/02/07 19:07:31;;;;;;;;;;;;;;;;;;10414361;28;20120;-83
2023/02/07 19:12:32;;;;;;;8.65;6.55;;;;;;;;;;10416462;28;19908;-82
2023/02/07 19:17:34;;;;;;;9.40;7.63;;;;;;;;;;10420214;28;20087;-83
2023/02/07 19:22:35;;;;;;;9.85;8.07;;;;;;;;;;10418586;28;20089;-83
2023/02/07 19:27:36;;;;;;;9.15;7.47;;;;;;;;;;10419052;28;20494;-83
2023/02/07 19:32:37;;;;;;;;;;;;;;;;;;10423280;28;20040;-82
2023/02/07 19:37:38;;;;;;;8.80;7.00;;;;;;;;;;10435912;28;19944;-82
2023/02/07 19:42:39;;;;;;;;;;;;;;;;;;10421479;28;20087;-82
2023/02/07 19:47:40;;;;;;;7.90;6.75;;;;;;;;;;10459233;28;19977;-81
2023/02/07 19:52:41;;;;;;;;;;;;;;;;;;10431656;28;20378;-83
2023/02/07 19:57:42;;;;;;;7.35;6.45;;;;;;;;;;10420685;28;19996;-83
2023/02/07 20:02:43;;;;;;;;;;;;;;;;;;10424992;28;20044;-85
2023/02/07 20:07:44;;;;;;;9.57;7.45;;;;;;;;;;10414812;28;19912;-85
2023/02/07 20:12:45;;;;;;;9.02;8.00;;;;;;;;;;10437301;28;20037;-86
2023/02/07 20:17:47;;;;;;;10.70;9.30;;;;;;;;;;10431442;28;20029;-86
